createdAt,value
2022-10-06T00:00:38.656Z,13.30
2022-10-06T00:03:05.110Z,13.02
2022-10-06T00:05:31.600Z,13.35
2022-10-06T00:07:58.771Z,12.82
2022-10-06T00:10:25.133Z,13.75
2022-10-06T00:12:52.291Z,14.05
2022-10-06T00:15:22.762Z,13.60
2022-10-06T00:17:49.667Z,14.85
2022-10-06T00:20:16.834Z,17.80
2022-10-06T00:22:45.703Z,21.38
2022-10-06T00:25:15.456Z,22.67
2022-10-06T00:27:44.635Z,18.02
2022-10-06T00:30:13.347Z,19.30
2022-10-06T00:32:40.211Z,16.58
2022-10-06T00:35:08.096Z,15.50
2022-10-06T00:37:36.400Z,14.73
2022-10-06T00:40:07.018Z,15.20
2022-10-06T00:42:33.556Z,14.50
2022-10-06T00:45:05.975Z,15.05
2022-10-06T00:47:33.082Z,15.27
2022-10-06T00:50:00.206Z,16.20
2022-10-06T00:52:30.365Z,16.48
2022-10-06T00:54:59.645Z,15.85
2022-10-06T00:57:27.694Z,16.30
2022-10-06T00:59:54.223Z,16.50
2022-10-06T01:02:33.769Z,16.98
2022-10-06T01:05:03.528Z,16.25
2022-10-06T01:07:30.328Z,17.50
2022-10-06T01:09:58.023Z,16.05
2022-10-06T01:12:27.366Z,15.85
2022-10-06T01:14:54.203Z,16.75
2022-10-06T01:17:34.137Z,15.13
2022-10-06T01:20:03.339Z,15.50
2022-10-06T01:22:33.028Z,14.30
2022-10-06T01:24:59.824Z,14.73
2022-10-06T01:27:30.650Z,14.43
2022-10-06T01:29:59.102Z,14.70
2022-10-06T01:32:31.699Z,14.60
2022-10-06T01:34:58.062Z,13.35
2022-10-06T01:37:24.497Z,14.10
2022-10-06T01:39:50.900Z,14.35
2022-10-06T01:42:17.270Z,14.48
2022-10-06T01:44:43.797Z,14.30
2022-10-06T01:47:10.281Z,15.38
2022-10-06T01:49:36.647Z,15.45
2022-10-06T01:52:03.499Z,15.48
2022-10-06T01:54:29.955Z,14.40
2022-10-06T01:56:56.532Z,13.98
2022-10-06T01:59:24.509Z,14.35
2022-10-06T02:01:51.561Z,15.05
2022-10-06T02:04:18.083Z,14.43
2022-10-06T02:06:44.580Z,13.45
2022-10-06T02:09:11.031Z,14.10
2022-10-06T02:11:38.088Z,15.05
2022-10-06T02:14:04.484Z,15.20
2022-10-06T02:16:31.187Z,14.40
2022-10-06T02:18:57.561Z,13.73
2022-10-06T02:21:24.325Z,14.40
2022-10-06T02:23:51.146Z,15.70
2022-10-06T02:26:18.111Z,18.75
2022-10-06T02:28:49.758Z,16.40
2022-10-06T02:31:16.966Z,15.38
2022-10-06T02:33:44.706Z,14.63
2022-10-06T02:36:13.864Z,13.93
2022-10-06T02:38:41.583Z,13.57
2022-10-06T02:41:09.038Z,13.55
2022-10-06T02:43:35.700Z,12.48
2022-10-06T02:46:05.890Z,12.90
2022-10-06T02:48:33.212Z,12.25
2022-10-06T02:51:02.324Z,12.30
2022-10-06T02:53:29.433Z,12.20
2022-10-06T02:56:05.396Z,12.57
2022-10-06T02:58:33.042Z,12.77
2022-10-06T03:01:10.537Z,11.70
2022-10-06T03:03:37.850Z,12.00
2022-10-06T03:06:21.812Z,13.20
2022-10-06T03:08:56.918Z,12.52
2022-10-06T03:11:25.585Z,12.35
2022-10-06T03:13:52.879Z,11.23
2022-10-06T03:16:24.038Z,12.25
2022-10-06T03:18:52.126Z,11.23
2022-10-06T03:21:20.739Z,10.70
2022-10-06T03:23:49.335Z,11.82
2022-10-06T03:26:17.984Z,13.43
2022-10-06T03:28:45.235Z,12.30
2022-10-06T03:31:12.535Z,11.10
2022-10-06T03:33:39.201Z,12.68
2022-10-06T03:36:07.850Z,11.60
2022-10-06T03:38:35.124Z,11.50
2022-10-06T03:41:22.541Z,11.27
2022-10-06T03:43:50.559Z,11.35
2022-10-06T03:46:19.870Z,12.95
2022-10-06T03:48:47.939Z,11.45
2022-10-06T03:51:17.091Z,11.80
2022-10-06T03:53:45.690Z,12.07
2022-10-06T03:56:20.886Z,11.73
2022-10-06T03:58:53.942Z,11.85
2022-10-06T04:01:44.931Z,12.30
2022-10-06T04:04:12.721Z,12.77
2022-10-06T04:06:41.900Z,13.00
2022-10-06T04:09:14.907Z,11.38
2022-10-06T04:11:42.967Z,12.40
2022-10-06T04:14:11.739Z,13.18
2022-10-06T04:16:46.170Z,12.30
2022-10-06T04:19:14.452Z,12.02
2022-10-06T04:21:42.597Z,12.40
2022-10-06T04:24:10.733Z,12.23
2022-10-06T04:26:45.045Z,12.10
2022-10-06T04:29:11.554Z,10.98
2022-10-06T04:31:39.187Z,11.73
2022-10-06T04:34:06.786Z,11.77
2022-10-06T04:36:35.831Z,10.98
2022-10-06T04:39:04.885Z,11.32
2022-10-06T04:41:40.760Z,11.02
2022-10-06T04:44:08.667Z,10.68
2022-10-06T04:46:43.090Z,11.40
2022-10-06T04:49:16.228Z,10.50
2022-10-06T04:51:46.197Z,10.52
2022-10-06T04:54:12.828Z,10.40
2022-10-06T04:56:39.213Z,10.90
2022-10-06T04:59:05.600Z,10.60
2022-10-06T05:01:34.517Z,11.00
2022-10-06T05:04:02.217Z,11.07
2022-10-06T05:06:31.315Z,11.75
2022-10-06T05:09:03.528Z,10.73
2022-10-06T05:11:30.151Z,11.32
2022-10-06T05:13:57.857Z,11.00
2022-10-06T05:16:26.266Z,11.27
2022-10-06T05:18:53.303Z,11.30
2022-10-06T05:21:25.884Z,10.60
2022-10-06T05:23:52.284Z,12.02
2022-10-06T05:26:20.852Z,11.07
2022-10-06T05:28:47.797Z,11.02
2022-10-06T05:31:20.182Z,10.82
2022-10-06T05:33:47.119Z,10.70
2022-10-06T05:36:18.627Z,10.52
2022-10-06T05:38:45.623Z,11.18
2022-10-06T05:41:26.394Z,11.00
2022-10-06T05:43:55.866Z,11.20
2022-10-06T05:46:25.155Z,10.60
2022-10-06T05:48:55.470Z,11.80
2022-10-06T05:51:29.347Z,11.25
2022-10-06T05:53:57.029Z,9.50
2022-10-06T05:56:25.690Z,11.32
2022-10-06T05:58:53.924Z,10.13
2022-10-06T06:01:21.907Z,11.13
2022-10-06T06:04:00.202Z,10.70
2022-10-06T06:06:31.367Z,10.68
2022-10-06T06:09:03.624Z,29.25
2022-10-06T06:11:31.604Z,13.70
2022-10-06T06:13:59.880Z,121.97
2022-10-06T06:16:28.644Z,10.98
2022-10-06T06:18:55.131Z,11.27
2022-10-06T06:21:21.691Z,10.60
2022-10-06T06:23:48.764Z,10.68
2022-10-06T06:26:23.533Z,10.50
2022-10-06T06:28:52.093Z,10.25
2022-10-06T06:31:30.341Z,10.52
2022-10-06T06:33:58.952Z,10.32
2022-10-06T06:36:26.824Z,10.50
2022-10-06T06:38:57.935Z,10.93
2022-10-06T06:41:27.253Z,43.22
2022-10-06T06:43:54.336Z,208.85
2022-10-06T06:46:26.823Z,12.35
2022-10-06T06:48:55.191Z,11.60
2022-10-06T06:51:23.943Z,10.88
2022-10-06T06:53:51.636Z,10.27
2022-10-06T06:56:19.058Z,10.90
2022-10-06T06:58:47.440Z,9.88
2022-10-06T07:01:19.299Z,9.85
2022-10-06T07:03:57.444Z,11.18
2022-10-06T07:06:28.526Z,9.43
2022-10-06T07:08:57.757Z,10.68
2022-10-06T07:11:26.399Z,10.93
2022-10-06T07:13:58.417Z,10.93
2022-10-06T07:16:43.566Z,10.77
2022-10-06T07:19:32.321Z,10.88
2022-10-06T07:22:25.722Z,11.48
2022-10-06T07:25:08.182Z,11.90
2022-10-06T07:27:45.994Z,10.95
2022-10-06T07:30:22.355Z,11.48
2022-10-06T07:32:50.915Z,10.80
2022-10-06T07:35:20.065Z,10.85
2022-10-06T07:37:46.867Z,11.20
2022-10-06T07:40:14.869Z,11.23
2022-10-06T07:42:53.849Z,12.23
2022-10-06T07:45:41.763Z,12.25
2022-10-06T07:48:17.991Z,11.43
2022-10-06T07:50:48.023Z,12.00
2022-10-06T07:53:16.132Z,11.88
2022-10-06T07:55:45.257Z,12.55
2022-10-06T07:58:11.623Z,12.07
2022-10-06T08:00:38.009Z,12.43
2022-10-06T08:03:04.602Z,12.82
2022-10-06T08:05:32.234Z,12.68
2022-10-06T08:07:58.793Z,13.68
2022-10-06T08:10:25.947Z,13.38
2022-10-06T08:12:52.423Z,11.70
2022-10-06T08:15:19.388Z,12.93
2022-10-06T08:17:45.929Z,11.70
2022-10-06T08:20:13.889Z,12.77
2022-10-06T08:22:41.231Z,12.00
2022-10-06T08:25:10.301Z,12.85
2022-10-06T08:27:38.008Z,13.43
2022-10-06T08:30:06.197Z,12.80
2022-10-06T08:32:33.803Z,12.63
2022-10-06T08:35:00.184Z,14.48
2022-10-06T08:37:27.223Z,12.15
2022-10-06T08:39:54.551Z,13.43
2022-10-06T08:42:42.960Z,13.52
2022-10-06T08:45:20.578Z,12.00
2022-10-06T08:48:11.314Z,15.30
2022-10-06T08:50:58.190Z,14.07
2022-10-06T08:53:46.857Z,13.77
2022-10-06T08:56:44.934Z,12.75
2022-10-06T08:59:12.000Z,42.53
2022-10-06T09:01:45.518Z,44.53
2022-10-06T09:04:26.132Z,42.58
2022-10-06T09:07:16.177Z,31.25
2022-10-06T09:10:10.618Z,12.13
2022-10-06T09:12:49.454Z,12.25
2022-10-06T09:15:44.826Z,12.70
2022-10-06T09:18:22.268Z,11.82
2022-10-06T09:21:01.520Z,12.23
2022-10-06T09:23:49.916Z,11.55
2022-10-06T09:26:22.234Z,10.93
2022-10-06T09:28:52.297Z,10.13
2022-10-06T09:31:23.331Z,11.13
2022-10-06T09:33:55.259Z,11.30
2022-10-06T09:36:22.354Z,10.90
2022-10-06T09:38:59.408Z,16.27
2022-10-06T09:41:34.510Z,13.20
2022-10-06T09:44:24.480Z,11.88
2022-10-06T09:46:52.456Z,14.13
2022-10-06T09:49:20.229Z,13.27
2022-10-06T09:52:12.602Z,13.25
2022-10-06T09:54:41.817Z,14.90
2022-10-06T09:57:26.530Z,13.80
2022-10-06T09:59:53.643Z,14.10
2022-10-06T10:02:39.642Z,14.43
2022-10-06T10:05:19.112Z,15.10
2022-10-06T10:07:48.017Z,17.73
2022-10-06T10:10:24.129Z,18.13
2022-10-06T10:12:53.178Z,19.90
2022-10-06T10:15:19.604Z,20.88
2022-10-06T10:17:50.383Z,18.55
2022-10-06T10:20:36.191Z,20.50
2022-10-06T10:23:27.201Z,21.48
2022-10-06T10:26:17.451Z,23.52
2022-10-06T10:29:11.348Z,22.48
2022-10-06T10:31:58.456Z,22.50
2022-10-06T10:34:46.579Z,20.65
2022-10-06T10:37:24.251Z,33.67
2022-10-06T10:40:23.503Z,32.97
2022-10-06T10:42:55.951Z,24.17
2022-10-06T10:45:32.399Z,23.88
2022-10-06T10:48:01.340Z,20.95
2022-10-06T10:50:47.859Z,19.65
2022-10-06T10:53:26.839Z,19.77
2022-10-06T10:55:53.943Z,20.52
2022-10-06T10:58:30.498Z,20.15
2022-10-06T11:01:04.112Z,17.83
2022-10-06T11:03:30.906Z,17.80
2022-10-06T11:06:16.234Z,17.85
2022-10-06T11:08:49.617Z,18.85
2022-10-06T11:11:28.403Z,17.67
2022-10-06T11:13:59.499Z,23.17
2022-10-06T11:16:32.000Z,19.02
2022-10-06T11:19:14.784Z,21.70
2022-10-06T11:21:57.910Z,21.30
2022-10-06T11:24:39.955Z,20.40
2022-10-06T11:27:22.770Z,19.98
2022-10-06T11:29:51.840Z,19.80
2022-10-06T11:32:49.146Z,19.77
2022-10-06T11:35:20.574Z,20.30
2022-10-06T11:37:55.713Z,21.23
2022-10-06T11:40:38.532Z,19.83
2022-10-06T11:43:13.032Z,22.27
2022-10-06T11:45:59.226Z,20.70
2022-10-06T11:48:29.773Z,37.22
2022-10-06T11:51:17.167Z,34.53
2022-10-06T11:53:44.611Z,25.33
2022-10-06T11:56:16.785Z,22.80
2022-10-06T11:58:52.392Z,19.97
2022-10-06T12:01:27.873Z,20.00
2022-10-06T12:04:10.485Z,18.65
2022-10-06T12:06:43.241Z,20.98
2022-10-06T12:09:30.859Z,18.92
2022-10-06T12:12:17.711Z,17.55
2022-10-06T12:18:04.968Z,17.77
2022-10-06T12:20:40.852Z,17.77
2022-10-06T12:23:09.998Z,18.13
2022-10-06T12:26:14.987Z,20.23
2022-10-06T12:28:49.703Z,64.57
2022-10-06T12:31:43.187Z,19.75
2022-10-06T12:37:20.225Z,16.45
2022-10-06T12:39:46.624Z,17.27
2022-10-06T12:42:20.767Z,16.63
2022-10-06T12:44:49.170Z,16.45
2022-10-06T12:47:51.019Z,15.95
2022-10-06T12:50:27.008Z,14.15
2022-10-06T12:52:59.048Z,14.23
2022-10-06T12:55:47.953Z,19.73
2022-10-06T12:58:19.235Z,18.23
2022-10-06T13:00:46.656Z,16.00
2022-10-06T13:03:24.390Z,17.30
2022-10-06T13:05:57.191Z,19.23
2022-10-06T13:08:29.461Z,17.55
2022-10-06T13:11:34.263Z,17.55
2022-10-06T13:14:13.716Z,18.15
2022-10-06T13:16:45.863Z,17.55
2022-10-06T13:19:28.163Z,17.57
2022-10-06T13:21:54.939Z,18.85
2022-10-06T13:24:26.304Z,19.90
2022-10-06T13:26:53.243Z,19.75
2022-10-06T13:29:23.923Z,16.02
2022-10-06T13:31:53.300Z,16.17
2022-10-06T13:34:33.278Z,17.27
2022-10-06T13:37:00.103Z,19.45
2022-10-06T13:39:31.835Z,19.38
2022-10-06T13:42:04.244Z,19.23
2022-10-06T13:44:35.788Z,18.97
2022-10-06T13:47:14.461Z,18.30
2022-10-06T13:50:19.738Z,16.80
2022-10-06T13:52:48.761Z,16.27
2022-10-06T13:55:22.889Z,16.90
2022-10-06T13:58:09.224Z,17.10
2022-10-06T14:01:00.985Z,16.48
2022-10-06T14:03:28.273Z,16.92
2022-10-06T14:06:13.512Z,16.63
2022-10-06T14:08:39.984Z,17.83
2022-10-06T14:11:08.756Z,17.25
2022-10-06T14:13:37.827Z,17.10
2022-10-06T14:16:07.442Z,19.95
2022-10-06T14:18:46.645Z,22.27
2022-10-06T14:21:35.002Z,21.13
2022-10-06T14:24:06.127Z,18.90
2022-10-06T14:26:37.402Z,19.60
2022-10-06T14:29:04.204Z,21.08
2022-10-06T14:31:33.338Z,22.55
2022-10-06T14:34:00.159Z,20.23
2022-10-06T14:36:29.005Z,20.08
2022-10-06T14:38:57.526Z,18.60
2022-10-06T14:41:27.529Z,18.85
2022-10-06T14:44:03.468Z,19.92
2022-10-06T14:46:30.255Z,19.95
2022-10-06T14:48:57.642Z,20.45
2022-10-06T14:51:26.216Z,20.88
2022-10-06T14:53:54.273Z,18.52
2022-10-06T14:56:33.511Z,19.58
2022-10-06T14:59:03.033Z,19.52
2022-10-06T15:01:30.068Z,20.33
2022-10-06T15:03:58.932Z,19.40
2022-10-06T15:06:44.708Z,21.63
2022-10-06T15:09:11.498Z,20.55
2022-10-06T15:11:39.236Z,21.27
2022-10-06T15:14:06.553Z,20.55
2022-10-06T15:16:34.238Z,20.70
2022-10-06T15:19:01.554Z,21.63
2022-10-06T15:21:29.874Z,24.05
2022-10-06T15:23:57.905Z,22.00
2022-10-06T15:26:43.906Z,25.92
2022-10-06T15:29:12.132Z,23.80
2022-10-06T15:31:41.090Z,23.17
2022-10-06T15:34:18.349Z,21.73
2022-10-06T15:36:44.735Z,21.70
2022-10-06T15:39:18.361Z,21.55
2022-10-06T15:41:45.800Z,20.98
2022-10-06T15:44:13.404Z,20.85
2022-10-06T15:46:42.526Z,22.05
2022-10-06T15:49:14.085Z,21.67
2022-10-06T15:51:48.649Z,22.25
2022-10-06T15:54:21.911Z,21.55
2022-10-06T15:56:50.827Z,20.45
2022-10-06T15:59:22.566Z,19.58
2022-10-06T16:01:49.083Z,20.63
2022-10-06T16:04:44.813Z,20.85
2022-10-06T16:07:17.002Z,20.40
2022-10-06T16:09:52.722Z,21.97
2022-10-06T16:12:24.927Z,21.13
2022-10-06T16:14:51.934Z,22.05
2022-10-06T16:17:18.485Z,21.50
2022-10-06T16:19:45.180Z,20.75
2022-10-06T16:22:14.027Z,22.80
2022-10-06T16:24:40.915Z,21.42
2022-10-06T16:27:10.726Z,22.42
2022-10-06T16:29:37.120Z,20.63
2022-10-06T16:32:03.684Z,21.50
2022-10-06T16:34:31.375Z,21.77
2022-10-06T16:36:58.516Z,21.13
2022-10-06T16:39:24.996Z,21.42
2022-10-06T16:41:51.791Z,23.10
2022-10-06T16:44:18.422Z,21.25
2022-10-06T16:46:45.234Z,22.52
2022-10-06T16:49:11.860Z,23.20
2022-10-06T16:51:44.154Z,23.63
2022-10-06T16:54:15.073Z,24.48
2022-10-06T16:56:47.416Z,24.13
2022-10-06T16:59:16.286Z,24.92
2022-10-06T17:01:43.575Z,24.77
2022-10-06T17:04:13.040Z,24.10
2022-10-06T17:06:47.647Z,23.92
2022-10-06T17:09:17.597Z,23.23
2022-10-06T17:11:46.806Z,23.52
2022-10-06T17:14:13.489Z,23.20
2022-10-06T17:16:42.482Z,24.73
2022-10-06T17:19:10.921Z,25.60
2022-10-06T17:21:46.085Z,24.25
2022-10-06T17:24:14.406Z,25.23
2022-10-06T17:26:42.994Z,24.75
2022-10-06T17:29:21.071Z,24.05
2022-10-06T17:31:49.294Z,23.73
2022-10-06T17:34:21.197Z,23.27
2022-10-06T17:36:50.877Z,23.70
2022-10-06T17:39:22.855Z,22.35
2022-10-06T17:41:52.466Z,22.75
2022-10-06T17:44:25.774Z,24.50
2022-10-06T17:46:55.365Z,25.40
2022-10-06T17:49:23.985Z,23.95
2022-10-06T17:51:51.840Z,24.45
2022-10-06T17:54:20.843Z,25.48
2022-10-06T17:56:49.775Z,25.77
2022-10-06T17:59:25.044Z,27.20
2022-10-06T18:01:56.142Z,26.67
2022-10-06T18:04:23.256Z,27.45
2022-10-06T18:06:52.917Z,27.10
2022-10-06T18:09:19.732Z,27.02
2022-10-06T18:11:54.676Z,27.17
2022-10-06T18:14:22.690Z,27.10
2022-10-06T18:16:57.497Z,26.38
2022-10-06T18:19:35.450Z,26.40
2022-10-06T18:22:10.578Z,24.80
2022-10-06T18:24:38.234Z,27.92
2022-10-06T18:27:06.282Z,28.05
2022-10-06T18:29:34.999Z,28.05
2022-10-06T18:32:27.754Z,25.95
2022-10-06T18:37:35.117Z,27.65
2022-10-06T18:40:05.474Z,27.15
2022-10-06T18:42:31.878Z,27.63
2022-10-06T18:45:16.681Z,27.63
2022-10-06T18:48:01.331Z,27.77
2022-10-06T18:50:27.825Z,29.27
2022-10-06T18:52:56.425Z,29.77
2022-10-06T18:55:23.362Z,56.25
2022-10-06T18:57:50.316Z,164.52
2022-10-06T19:00:17.380Z,34.28
2022-10-06T19:02:47.581Z,49.40
2022-10-06T19:05:15.075Z,91.22
2022-10-06T19:07:41.848Z,45.30
2022-10-06T19:10:08.642Z,33.03
2022-10-06T19:12:35.022Z,39.10
2022-10-06T19:15:01.720Z,39.08
2022-10-06T19:17:28.621Z,146.43
2022-10-06T19:19:55.282Z,31.90
2022-10-06T19:22:24.326Z,31.25
2022-10-06T19:24:52.119Z,32.03
2022-10-06T19:27:20.918Z,30.52
2022-10-06T19:29:56.325Z,29.67
2022-10-06T19:32:28.851Z,36.22
2022-10-06T19:34:58.722Z,31.80
2022-10-06T19:37:27.340Z,32.20
2022-10-06T19:39:53.913Z,34.72
2022-10-06T19:42:39.449Z,37.08
2022-10-06T19:45:07.966Z,34.75
2022-10-06T19:47:34.400Z,33.85
2022-10-06T19:50:04.727Z,32.13
2022-10-06T19:52:34.839Z,312.08
2022-10-06T19:55:01.281Z,362.15
2022-10-06T19:57:29.204Z,159.85
2022-10-06T19:59:55.597Z,124.32
2022-10-06T20:02:22.757Z,331.60
2022-10-06T20:04:50.358Z,508.73
2022-10-06T20:07:16.776Z,68.90
2022-10-06T20:09:44.153Z,62.53
2022-10-06T20:12:10.692Z,135.63
2022-10-06T20:14:37.078Z,34.08
2022-10-06T20:17:03.535Z,32.38
2022-10-06T20:19:30.326Z,45.10
2022-10-06T20:21:56.777Z,67.60
2022-10-06T20:24:24.584Z,52.80
2022-10-06T20:26:52.546Z,30.80
2022-10-06T20:29:22.787Z,29.40
2022-10-06T20:31:52.051Z,29.10
2022-10-06T20:34:21.503Z,30.13
2022-10-06T20:36:51.862Z,31.48
2022-10-06T20:39:40.986Z,29.00
2022-10-06T20:42:13.649Z,25.45
2022-10-06T20:44:42.222Z,26.77
2022-10-06T20:47:10.182Z,25.33
2022-10-06T20:49:36.789Z,24.83
2022-10-06T20:52:04.639Z,25.60
2022-10-06T20:54:34.618Z,23.95
2022-10-06T20:57:03.827Z,24.33
2022-10-06T20:59:31.894Z,24.08
2022-10-06T21:02:01.325Z,24.65
2022-10-06T21:04:27.999Z,29.75
2022-10-06T21:06:54.461Z,31.38
2022-10-06T21:09:20.953Z,17.10
2022-10-06T21:11:48.053Z,17.20
2022-10-06T21:14:15.021Z,18.73
2022-10-06T21:16:43.535Z,15.55
2022-10-06T21:19:14.502Z,15.27
2022-10-06T21:21:42.105Z,16.83
2022-10-06T21:24:09.324Z,16.42
2022-10-06T21:26:38.430Z,15.07
2022-10-06T21:29:05.217Z,16.92
2022-10-06T21:31:33.060Z,16.17
2022-10-06T21:34:01.285Z,15.20
2022-10-06T21:36:31.967Z,15.68
2022-10-06T21:39:00.938Z,15.63
2022-10-06T21:41:36.998Z,15.35
2022-10-06T21:44:13.463Z,16.75
2022-10-06T21:46:51.236Z,15.70
2022-10-06T21:49:22.440Z,14.98
2022-10-06T21:51:53.854Z,16.67
2022-10-06T21:54:21.245Z,16.55
2022-10-06T21:56:48.305Z,15.93
2022-10-06T21:59:15.187Z,16.52
2022-10-06T22:01:43.636Z,17.55
2022-10-06T22:04:12.571Z,16.27
2022-10-06T22:06:38.910Z,17.17
2022-10-06T22:09:07.631Z,16.77
2022-10-06T22:11:36.716Z,18.13
2022-10-06T22:14:06.028Z,18.02
2022-10-06T22:16:34.367Z,17.08
2022-10-06T22:19:02.421Z,18.15
2022-10-06T22:21:31.648Z,17.23
2022-10-06T22:24:01.926Z,15.70
2022-10-06T22:26:29.865Z,16.92
2022-10-06T22:28:57.508Z,16.55
2022-10-06T22:31:26.345Z,16.13
2022-10-06T22:34:04.678Z,16.98
2022-10-06T22:36:31.558Z,17.10
2022-10-06T22:38:57.896Z,15.85
2022-10-06T22:41:24.670Z,16.40
2022-10-06T22:43:58.470Z,15.00
2022-10-06T22:46:27.107Z,14.82
2022-10-06T22:48:53.856Z,13.50
2022-10-06T22:51:20.622Z,14.02
2022-10-06T22:53:47.030Z,11.68
2022-10-06T22:56:13.393Z,12.18
2022-10-06T22:58:39.913Z,13.55
2022-10-06T23:01:15.131Z,9.85
2022-10-06T23:03:42.066Z,7.93
2022-10-06T23:06:12.037Z,6.30
2022-10-06T23:08:39.564Z,4.97
2022-10-06T23:11:12.876Z,3.67
2022-10-06T23:13:39.980Z,3.13
2022-10-06T23:16:09.181Z,2.65
2022-10-06T23:18:38.131Z,1.77
2022-10-06T23:21:09.258Z,2.78
2022-10-06T23:23:36.313Z,2.15
2022-10-06T23:26:05.658Z,2.63
2022-10-06T23:28:32.131Z,2.28
2022-10-06T23:30:58.521Z,2.10
2022-10-06T23:33:24.927Z,2.42
2022-10-06T23:36:06.025Z,2.80
2022-10-06T23:38:33.458Z,1.90
2022-10-06T23:40:59.962Z,1.98
2022-10-06T23:43:26.347Z,2.20
2022-10-06T23:45:52.857Z,1.60
2022-10-06T23:48:19.344Z,1.95
2022-10-06T23:51:08.285Z,1.23
2022-10-06T23:53:35.253Z,1.20
2022-10-06T23:56:02.392Z,1.67
2022-10-06T23:58:29.116Z,1.33
